sensor_id;sensor_type;location;lat;lon;timestamp;P1;durP1;ratioP1;P2;durP2;ratioP2
5175;SDS011;2607;50.934;6.934;2022-12-18T00:01:29;13.93;;;8.20;;
5175;SDS011;2607;50.934;6.934;2022-12-18T00:03:58;14.13;;;9.10;;
5175;SDS011;2607;50.934;6.934;2022-12-18T00:06:24;10.07;;;7.27;;
5175;SDS011;2607;50.934;6.934;2022-12-18T00:08:52;11.73;;;7.60;;
5175;SDS011;2607;50.934;6.934;2022-12-18T00:11:19;16.10;;;8.83;;
5175;SDS011;2607;50.934;6.934;2022-12-18T00:13:46;11.00;;;7.40;;
5175;SDS011;2607;50.934;6.934;2022-12-18T00:16:15;11.00;;;7.80;;
5175;SDS011;2607;50.934;6.934;2022-12-18T00:18:46;13.13;;;7.97;;
5175;SDS011;2607;50.934;6.934;2022-12-18T00:21:12;13.07;;;8.47;;
5175;SDS011;2607;50.934;6.934;2022-12-18T00:23:40;14.30;;;8.70;;
5175;SDS011;2607;50.934;6.934;2022-12-18T00:26:10;12.33;;;8.00;;
5175;SDS011;2607;50.934;6.934;2022-12-18T00:28:40;10.93;;;7.80;;
5175;SDS011;2607;50.934;6.934;2022-12-18T00:31:07;12.03;;;8.20;;
5175;SDS011;2607;50.934;6.934;2022-12-18T00:33:35;11.80;;;8.10;;
5175;SDS011;2607;50.934;6.934;2022-12-18T00:36:05;9.87;;;7.63;;
5175;SDS011;2607;50.934;6.934;2022-12-18T00:38:57;14.37;;;8.60;;
5175;SDS011;2607;50.934;6.934;2022-12-18T00:41:24;12.93;;;8.27;;
5175;SDS011;2607;50.934;6.934;2022-12-18T00:44:10;12.93;;;7.50;;
5175;SDS011;2607;50.934;6.934;2022-12-18T00:46:37;14.00;;;8.00;;
5175;SDS011;2607;50.934;6.934;2022-12-18T00:49:03;13.13;;;7.80;;
5175;SDS011;2607;50.934;6.934;2022-12-18T00:51:29;12.87;;;8.03;;
5175;SDS011;2607;50.934;6.934;2022-12-18T00:53:54;13.00;;;7.67;;
5175;SDS011;2607;50.934;6.934;2022-12-18T00:56:23;13.63;;;8.80;;
5175;SDS011;2607;50.934;6.934;2022-12-18T00:58:49;12.87;;;7.57;;
5175;SDS011;2607;50.934;6.934;2022-12-18T01:01:15;12.70;;;8.23;;
5175;SDS011;2607;50.934;6.934;2022-12-18T01:03:41;10.50;;;7.57;;
5175;SDS011;2607;50.934;6.934;2022-12-18T01:06:07;11.00;;;7.80;;
5175;SDS011;2607;50.934;6.934;2022-12-18T01:08:35;10.00;;;7.20;;
5175;SDS011;2607;50.934;6.934;2022-12-18T01:11:06;9.00;;;7.00;;
5175;SDS011;2607;50.934;6.934;2022-12-18T01:13:33;10.40;;;7.70;;
5175;SDS011;2607;50.934;6.934;2022-12-18T01:15:58;13.80;;;8.80;;
5175;SDS011;2607;50.934;6.934;2022-12-18T01:18:24;10.90;;;7.70;;
5175;SDS011;2607;50.934;6.934;2022-12-18T01:20:50;14.27;;;8.30;;
5175;SDS011;2607;50.934;6.934;2022-12-18T01:23:15;11.23;;;8.67;;
5175;SDS011;2607;50.934;6.934;2022-12-18T01:25:41;11.87;;;8.03;;
5175;SDS011;2607;50.934;6.934;2022-12-18T01:28:06;13.50;;;8.03;;
5175;SDS011;2607;50.934;6.934;2022-12-18T01:30:32;10.77;;;7.60;;
5175;SDS011;2607;50.934;6.934;2022-12-18T01:32:57;17.20;;;8.47;;
5175;SDS011;2607;50.934;6.934;2022-12-18T01:35:23;11.97;;;8.23;;
5175;SDS011;2607;50.934;6.934;2022-12-18T01:37:48;12.30;;;8.50;;
5175;SDS011;2607;50.934;6.934;2022-12-18T01:40:14;10.53;;;7.93;;
5175;SDS011;2607;50.934;6.934;2022-12-18T01:42:39;12.23;;;7.77;;
5175;SDS011;2607;50.934;6.934;2022-12-18T01:50:17;12.10;;;8.13;;
5175;SDS011;2607;50.934;6.934;2022-12-18T01:52:58;12.60;;;8.60;;
5175;SDS011;2607;50.934;6.934;2022-12-18T01:55:48;14.60;;;8.73;;
5175;SDS011;2607;50.934;6.934;2022-12-18T01:58:17;12.80;;;8.43;;
5175;SDS011;2607;50.934;6.934;2022-12-18T02:00:45;12.23;;;8.73;;
5175;SDS011;2607;50.934;6.934;2022-12-18T02:03:10;12.63;;;8.60;;
5175;SDS011;2607;50.934;6.934;2022-12-18T02:08:20;12.70;;;8.50;;
5175;SDS011;2607;50.934;6.934;2022-12-18T02:11:30;10.77;;;7.97;;
5175;SDS011;2607;50.934;6.934;2022-12-18T02:14:22;16.50;;;9.00;;
5175;SDS011;2607;50.934;6.934;2022-12-18T02:17:07;10.80;;;7.90;;
5175;SDS011;2607;50.934;6.934;2022-12-18T02:27:49;10.20;;;7.23;;
5175;SDS011;2607;50.934;6.934;2022-12-18T02:30:17;13.00;;;9.27;;
5175;SDS011;2607;50.934;6.934;2022-12-18T02:32:46;11.93;;;7.60;;
5175;SDS011;2607;50.934;6.934;2022-12-18T02:35:20;13.27;;;8.30;;
5175;SDS011;2607;50.934;6.934;2022-12-18T02:37:49;9.47;;;7.47;;
5175;SDS011;2607;50.934;6.934;2022-12-18T02:40:19;11.37;;;8.10;;
5175;SDS011;2607;50.934;6.934;2022-12-18T02:42:46;14.70;;;8.67;;
5175;SDS011;2607;50.934;6.934;2022-12-18T02:45:12;11.00;;;8.23;;
5175;SDS011;2607;50.934;6.934;2022-12-18T02:47:39;13.00;;;8.57;;
5175;SDS011;2607;50.934;6.934;2022-12-18T02:58:20;10.97;;;7.43;;
5175;SDS011;2607;50.934;6.934;2022-12-18T03:01:00;13.47;;;8.30;;
5175;SDS011;2607;50.934;6.934;2022-12-18T03:06:10;12.17;;;8.33;;
5175;SDS011;2607;50.934;6.934;2022-12-18T03:08:44;11.47;;;8.70;;
5175;SDS011;2607;50.934;6.934;2022-12-18T03:11:13;14.63;;;8.87;;
5175;SDS011;2607;50.934;6.934;2022-12-18T03:16:18;12.73;;;8.20;;
5175;SDS011;2607;50.934;6.934;2022-12-18T03:18:51;11.17;;;7.70;;
5175;SDS011;2607;50.934;6.934;2022-12-18T03:21:29;13.03;;;7.47;;
5175;SDS011;2607;50.934;6.934;2022-12-18T03:24:06;13.30;;;8.13;;
5175;SDS011;2607;50.934;6.934;2022-12-18T03:26:34;12.90;;;8.17;;
5175;SDS011;2607;50.934;6.934;2022-12-18T03:29:07;14.07;;;8.67;;
5175;SDS011;2607;50.934;6.934;2022-12-18T03:31:37;12.63;;;8.50;;
5175;SDS011;2607;50.934;6.934;2022-12-18T03:34:09;14.60;;;8.23;;
5175;SDS011;2607;50.934;6.934;2022-12-18T03:36:39;11.17;;;8.03;;
5175;SDS011;2607;50.934;6.934;2022-12-18T03:39:04;13.60;;;8.30;;
5175;SDS011;2607;50.934;6.934;2022-12-18T03:41:39;11.23;;;7.83;;
5175;SDS011;2607;50.934;6.934;2022-12-18T03:52:13;15.40;;;7.93;;
5175;SDS011;2607;50.934;6.934;2022-12-18T03:54:42;10.50;;;7.33;;
5175;SDS011;2607;50.934;6.934;2022-12-18T03:57:11;12.20;;;9.27;;
5175;SDS011;2607;50.934;6.934;2022-12-18T03:59:41;13.03;;;8.57;;
5175;SDS011;2607;50.934;6.934;2022-12-18T04:02:10;11.70;;;7.63;;
5175;SDS011;2607;50.934;6.934;2022-12-18T04:04:36;10.77;;;8.27;;
5175;SDS011;2607;50.934;6.934;2022-12-18T04:07:03;9.30;;;7.30;;
5175;SDS011;2607;50.934;6.934;2022-12-18T04:09:30;11.27;;;8.23;;
5175;SDS011;2607;50.934;6.934;2022-12-18T04:11:57;7.83;;;6.60;;
5175;SDS011;2607;50.934;6.934;2022-12-18T04:14:23;11.37;;;8.40;;
5175;SDS011;2607;50.934;6.934;2022-12-18T04:16:48;10.80;;;8.03;;
5175;SDS011;2607;50.934;6.934;2022-12-18T04:19:14;12.03;;;8.10;;
5175;SDS011;2607;50.934;6.934;2022-12-18T04:21:40;15.20;;;8.83;;
5175;SDS011;2607;50.934;6.934;2022-12-18T04:24:05;11.80;;;8.60;;
5175;SDS011;2607;50.934;6.934;2022-12-18T04:26:31;11.43;;;8.23;;
5175;SDS011;2607;50.934;6.934;2022-12-18T04:28:57;11.07;;;8.17;;
5175;SDS011;2607;50.934;6.934;2022-12-18T04:31:22;18.23;;;9.47;;
5175;SDS011;2607;50.934;6.934;2022-12-18T04:33:48;13.97;;;9.20;;
5175;SDS011;2607;50.934;6.934;2022-12-18T04:36:13;13.10;;;8.03;;
5175;SDS011;2607;50.934;6.934;2022-12-18T04:38:39;13.03;;;8.97;;
5175;SDS011;2607;50.934;6.934;2022-12-18T04:41:05;12.97;;;8.17;;
5175;SDS011;2607;50.934;6.934;2022-12-18T04:43:30;10.90;;;8.30;;
5175;SDS011;2607;50.934;6.934;2022-12-18T04:46:01;12.30;;;8.50;;
5175;SDS011;2607;50.934;6.934;2022-12-18T04:48:28;13.63;;;9.07;;
5175;SDS011;2607;50.934;6.934;2022-12-18T04:50:53;14.33;;;9.77;;
5175;SDS011;2607;50.934;6.934;2022-12-18T04:53:19;13.40;;;8.30;;
5175;SDS011;2607;50.934;6.934;2022-12-18T04:55:45;14.43;;;9.33;;
5175;SDS011;2607;50.934;6.934;2022-12-18T04:58:10;14.43;;;9.97;;
5175;SDS011;2607;50.934;6.934;2022-12-18T05:00:36;13.50;;;9.30;;
5175;SDS011;2607;50.934;6.934;2022-12-18T05:03:01;12.63;;;8.70;;
5175;SDS011;2607;50.934;6.934;2022-12-18T05:05:27;13.23;;;9.30;;
5175;SDS011;2607;50.934;6.934;2022-12-18T05:07:53;12.63;;;9.00;;
5175;SDS011;2607;50.934;6.934;2022-12-18T05:10:18;13.23;;;9.20;;
5175;SDS011;2607;50.934;6.934;2022-12-18T05:12:44;12.90;;;9.30;;
5175;SDS011;2607;50.934;6.934;2022-12-18T05:15:30;13.67;;;8.97;;
5175;SDS011;2607;50.934;6.934;2022-12-18T05:17:57;12.83;;;9.27;;
5175;SDS011;2607;50.934;6.934;2022-12-18T05:20:23;15.50;;;9.07;;
5175;SDS011;2607;50.934;6.934;2022-12-18T05:22:49;14.60;;;9.03;;
5175;SDS011;2607;50.934;6.934;2022-12-18T05:25:15;18.10;;;9.67;;
5175;SDS011;2607;50.934;6.934;2022-12-18T05:27:41;13.30;;;9.10;;
5175;SDS011;2607;50.934;6.934;2022-12-18T05:30:07;15.53;;;9.47;;
5175;SDS011;2607;50.934;6.934;2022-12-18T05:32:33;15.17;;;8.80;;
5175;SDS011;2607;50.934;6.934;2022-12-18T05:34:59;13.33;;;9.47;;
5175;SDS011;2607;50.934;6.934;2022-12-18T05:37:25;12.70;;;8.33;;
5175;SDS011;2607;50.934;6.934;2022-12-18T05:39:50;13.37;;;9.40;;
5175;SDS011;2607;50.934;6.934;2022-12-18T05:42:16;14.50;;;9.13;;
5175;SDS011;2607;50.934;6.934;2022-12-18T05:44:41;11.00;;;8.10;;
5175;SDS011;2607;50.934;6.934;2022-12-18T05:47:08;14.27;;;10.30;;
5175;SDS011;2607;50.934;6.934;2022-12-18T05:49:34;11.70;;;8.57;;
5175;SDS011;2607;50.934;6.934;2022-12-18T05:51:59;15.87;;;10.40;;
5175;SDS011;2607;50.934;6.934;2022-12-18T05:54:26;11.57;;;8.30;;
5175;SDS011;2607;50.934;6.934;2022-12-18T05:56:52;18.07;;;9.67;;
5175;SDS011;2607;50.934;6.934;2022-12-18T05:59:18;13.47;;;9.70;;
5175;SDS011;2607;50.934;6.934;2022-12-18T06:01:44;15.90;;;9.87;;
5175;SDS011;2607;50.934;6.934;2022-12-18T06:04:10;13.77;;;8.97;;
5175;SDS011;2607;50.934;6.934;2022-12-18T06:06:36;14.37;;;9.83;;
5175;SDS011;2607;50.934;6.934;2022-12-18T06:09:01;16.40;;;10.47;;
5175;SDS011;2607;50.934;6.934;2022-12-18T06:11:33;15.67;;;9.50;;
5175;SDS011;2607;50.934;6.934;2022-12-18T06:13:59;18.00;;;9.43;;
5175;SDS011;2607;50.934;6.934;2022-12-18T06:16:26;14.50;;;9.60;;
5175;SDS011;2607;50.934;6.934;2022-12-18T06:18:52;16.23;;;9.57;;
5175;SDS011;2607;50.934;6.934;2022-12-18T06:21:18;16.60;;;10.30;;
5175;SDS011;2607;50.934;6.934;2022-12-18T06:23:44;12.97;;;9.57;;
5175;SDS011;2607;50.934;6.934;2022-12-18T06:26:11;15.47;;;10.00;;
5175;SDS011;2607;50.934;6.934;2022-12-18T06:28:37;14.70;;;9.60;;
5175;SDS011;2607;50.934;6.934;2022-12-18T06:31:03;14.40;;;9.90;;
5175;SDS011;2607;50.934;6.934;2022-12-18T06:33:29;16.23;;;10.23;;
5175;SDS011;2607;50.934;6.934;2022-12-18T06:35:59;15.93;;;9.97;;
5175;SDS011;2607;50.934;6.934;2022-12-18T06:38:30;15.60;;;8.97;;
5175;SDS011;2607;50.934;6.934;2022-12-18T06:40:56;15.83;;;10.00;;
5175;SDS011;2607;50.934;6.934;2022-12-18T06:43:22;16.77;;;9.67;;
5175;SDS011;2607;50.934;6.934;2022-12-18T06:45:47;12.80;;;9.40;;
5175;SDS011;2607;50.934;6.934;2022-12-18T06:48:17;15.07;;;9.00;;
5175;SDS011;2607;50.934;6.934;2022-12-18T06:50:46;11.90;;;9.17;;
5175;SDS011;2607;50.934;6.934;2022-12-18T06:53:11;17.80;;;10.30;;
5175;SDS011;2607;50.934;6.934;2022-12-18T06:55:37;14.17;;;9.00;;
5175;SDS011;2607;50.934;6.934;2022-12-18T06:58:02;15.43;;;9.90;;
5175;SDS011;2607;50.934;6.934;2022-12-18T07:00:28;14.10;;;9.50;;
5175;SDS011;2607;50.934;6.934;2022-12-18T07:02:54;14.93;;;9.87;;
5175;SDS011;2607;50.934;6.934;2022-12-18T07:05:19;16.10;;;9.40;;
5175;SDS011;2607;50.934;6.934;2022-12-18T07:07:45;15.83;;;9.90;;
5175;SDS011;2607;50.934;6.934;2022-12-18T07:10:10;18.03;;;10.30;;
5175;SDS011;2607;50.934;6.934;2022-12-18T07:12:36;17.23;;;8.60;;
5175;SDS011;2607;50.934;6.934;2022-12-18T07:15:02;14.77;;;9.07;;
5175;SDS011;2607;50.934;6.934;2022-12-18T07:17:28;13.93;;;10.23;;
5175;SDS011;2607;50.934;6.934;2022-12-18T07:19:54;15.00;;;9.57;;
5175;SDS011;2607;50.934;6.934;2022-12-18T07:22:20;15.60;;;10.20;;
5175;SDS011;2607;50.934;6.934;2022-12-18T07:24:45;14.70;;;9.63;;
5175;SDS011;2607;50.934;6.934;2022-12-18T07:27:11;13.10;;;9.20;;
5175;SDS011;2607;50.934;6.934;2022-12-18T07:29:36;14.37;;;10.17;;
5175;SDS011;2607;50.934;6.934;2022-12-18T07:32:02;13.43;;;9.63;;
5175;SDS011;2607;50.934;6.934;2022-12-18T07:34:27;14.90;;;8.87;;
5175;SDS011;2607;50.934;6.934;2022-12-18T07:36:53;17.57;;;10.10;;
5175;SDS011;2607;50.934;6.934;2022-12-18T07:39:18;14.80;;;9.97;;
5175;SDS011;2607;50.934;6.934;2022-12-18T07:41:44;14.43;;;8.70;;
5175;SDS011;2607;50.934;6.934;2022-12-18T07:44:29;17.07;;;10.40;;
5175;SDS011;2607;50.934;6.934;2022-12-18T07:46:55;17.40;;;10.83;;
5175;SDS011;2607;50.934;6.934;2022-12-18T07:49:20;13.53;;;9.80;;
5175;SDS011;2607;50.934;6.934;2022-12-18T07:51:46;16.30;;;9.97;;
5175;SDS011;2607;50.934;6.934;2022-12-18T07:54:14;17.97;;;11.50;;
5175;SDS011;2607;50.934;6.934;2022-12-18T07:56:39;14.87;;;9.40;;
5175;SDS011;2607;50.934;6.934;2022-12-18T07:59:05;17.23;;;10.47;;
5175;SDS011;2607;50.934;6.934;2022-12-18T08:01:30;16.03;;;9.90;;
5175;SDS011;2607;50.934;6.934;2022-12-18T08:03:57;13.77;;;8.97;;
5175;SDS011;2607;50.934;6.934;2022-12-18T08:06:22;15.07;;;9.77;;
5175;SDS011;2607;50.934;6.934;2022-12-18T08:08:48;15.03;;;9.90;;
5175;SDS011;2607;50.934;6.934;2022-12-18T08:11:13;13.20;;;9.03;;
5175;SDS011;2607;50.934;6.934;2022-12-18T08:13:39;14.20;;;9.47;;
5175;SDS011;2607;50.934;6.934;2022-12-18T08:16:05;12.00;;;8.47;;
5175;SDS011;2607;50.934;6.934;2022-12-18T08:18:32;13.40;;;9.87;;
5175;SDS011;2607;50.934;6.934;2022-12-18T08:21:15;14.80;;;9.30;;
5175;SDS011;2607;50.934;6.934;2022-12-18T08:23:43;22.30;;;9.57;;
5175;SDS011;2607;50.934;6.934;2022-12-18T08:26:10;17.30;;;9.97;;
5175;SDS011;2607;50.934;6.934;2022-12-18T08:28:36;13.37;;;9.70;;
5175;SDS011;2607;50.934;6.934;2022-12-18T08:31:02;17.43;;;9.80;;
5175;SDS011;2607;50.934;6.934;2022-12-18T08:33:27;14.20;;;10.07;;
5175;SDS011;2607;50.934;6.934;2022-12-18T08:35:53;12.87;;;9.33;;
5175;SDS011;2607;50.934;6.934;2022-12-18T08:38:18;14.23;;;8.63;;
5175;SDS011;2607;50.934;6.934;2022-12-18T08:40:44;17.10;;;9.63;;
5175;SDS011;2607;50.934;6.934;2022-12-18T08:43:10;13.80;;;9.23;;
5175;SDS011;2607;50.934;6.934;2022-12-18T08:45:54;12.70;;;8.67;;
5175;SDS011;2607;50.934;6.934;2022-12-18T08:48:20;14.70;;;9.43;;
5175;SDS011;2607;50.934;6.934;2022-12-18T08:50:55;19.33;;;10.87;;
5175;SDS011;2607;50.934;6.934;2022-12-18T08:53:26;12.43;;;9.17;;
5175;SDS011;2607;50.934;6.934;2022-12-18T08:55:52;16.90;;;9.33;;
5175;SDS011;2607;50.934;6.934;2022-12-18T08:58:18;14.80;;;9.90;;
5175;SDS011;2607;50.934;6.934;2022-12-18T09:00:44;13.60;;;9.70;;
5175;SDS011;2607;50.934;6.934;2022-12-18T09:03:16;13.33;;;9.40;;
5175;SDS011;2607;50.934;6.934;2022-12-18T09:05:43;15.30;;;9.43;;
5175;SDS011;2607;50.934;6.934;2022-12-18T09:08:10;14.17;;;8.90;;
5175;SDS011;2607;50.934;6.934;2022-12-18T09:10:45;15.50;;;9.70;;
5175;SDS011;2607;50.934;6.934;2022-12-18T09:13:12;19.60;;;11.17;;
5175;SDS011;2607;50.934;6.934;2022-12-18T09:15:44;15.90;;;10.17;;
5175;SDS011;2607;50.934;6.934;2022-12-18T09:18:12;13.20;;;9.60;;
5175;SDS011;2607;50.934;6.934;2022-12-18T09:20:39;11.80;;;9.10;;
5175;SDS011;2607;50.934;6.934;2022-12-18T09:23:05;15.87;;;8.97;;
5175;SDS011;2607;50.934;6.934;2022-12-18T09:25:31;15.90;;;10.50;;
5175;SDS011;2607;50.934;6.934;2022-12-18T09:28:09;14.20;;;9.20;;
5175;SDS011;2607;50.934;6.934;2022-12-18T09:30:46;13.93;;;9.00;;
5175;SDS011;2607;50.934;6.934;2022-12-18T09:33:13;17.57;;;10.87;;
5175;SDS011;2607;50.934;6.934;2022-12-18T09:35:40;13.20;;;9.50;;
5175;SDS011;2607;50.934;6.934;2022-12-18T09:38:07;14.43;;;9.37;;
5175;SDS011;2607;50.934;6.934;2022-12-18T09:40:39;14.70;;;9.10;;
5175;SDS011;2607;50.934;6.934;2022-12-18T09:43:17;11.73;;;8.93;;
5175;SDS011;2607;50.934;6.934;2022-12-18T09:45:46;12.47;;;9.40;;
5175;SDS011;2607;50.934;6.934;2022-12-18T09:48:19;15.57;;;9.57;;
5175;SDS011;2607;50.934;6.934;2022-12-18T09:50:50;13.37;;;9.80;;
5175;SDS011;2607;50.934;6.934;2022-12-18T09:53:22;14.47;;;9.20;;
5175;SDS011;2607;50.934;6.934;2022-12-18T09:55:51;11.80;;;8.60;;
5175;SDS011;2607;50.934;6.934;2022-12-18T09:58:41;14.00;;;9.50;;
5175;SDS011;2607;50.934;6.934;2022-12-18T10:01:13;14.67;;;9.13;;
5175;SDS011;2607;50.934;6.934;2022-12-18T10:03:43;14.30;;;10.37;;
5175;SDS011;2607;50.934;6.934;2022-12-18T10:09:02;15.90;;;9.70;;
5175;SDS011;2607;50.934;6.934;2022-12-18T10:14:44;14.93;;;10.17;;
5175;SDS011;2607;50.934;6.934;2022-12-18T10:17:21;16.20;;;10.37;;
5175;SDS011;2607;50.934;6.934;2022-12-18T10:19:56;15.40;;;9.30;;
5175;SDS011;2607;50.934;6.934;2022-12-18T10:22:39;18.33;;;10.87;;
5175;SDS011;2607;50.934;6.934;2022-12-18T10:25:14;13.20;;;9.57;;
5175;SDS011;2607;50.934;6.934;2022-12-18T10:27:46;15.00;;;9.87;;
5175;SDS011;2607;50.934;6.934;2022-12-18T10:30:14;12.60;;;9.33;;
5175;SDS011;2607;50.934;6.934;2022-12-18T10:32:42;13.87;;;9.73;;
5175;SDS011;2607;50.934;6.934;2022-12-18T10:35:11;15.47;;;9.93;;
5175;SDS011;2607;50.934;6.934;2022-12-18T10:40:29;11.83;;;9.17;;
5175;SDS011;2607;50.934;6.934;2022-12-18T10:43:04;15.83;;;10.30;;
5175;SDS011;2607;50.934;6.934;2022-12-18T10:45:41;17.93;;;10.57;;
5175;SDS011;2607;50.934;6.934;2022-12-18T10:48:21;18.33;;;10.60;;
5175;SDS011;2607;50.934;6.934;2022-12-18T10:50:49;11.47;;;9.77;;
5175;SDS011;2607;50.934;6.934;2022-12-18T10:53:19;14.13;;;9.43;;
5175;SDS011;2607;50.934;6.934;2022-12-18T10:55:47;13.73;;;8.33;;
5175;SDS011;2607;50.934;6.934;2022-12-18T10:58:23;13.10;;;9.70;;
5175;SDS011;2607;50.934;6.934;2022-12-18T11:06:07;15.23;;;10.00;;
5175;SDS011;2607;50.934;6.934;2022-12-18T11:08:35;15.10;;;10.10;;
5175;SDS011;2607;50.934;6.934;2022-12-18T11:11:01;15.67;;;9.83;;
5175;SDS011;2607;50.934;6.934;2022-12-18T11:13:28;14.43;;;9.67;;
5175;SDS011;2607;50.934;6.934;2022-12-18T11:15:55;16.13;;;10.17;;
5175;SDS011;2607;50.934;6.934;2022-12-18T11:18:25;12.73;;;9.43;;
5175;SDS011;2607;50.934;6.934;2022-12-18T11:20:54;16.50;;;9.90;;
5175;SDS011;2607;50.934;6.934;2022-12-18T11:23:50;15.10;;;10.10;;
5175;SDS011;2607;50.934;6.934;2022-12-18T11:26:18;18.70;;;9.77;;
5175;SDS011;2607;50.934;6.934;2022-12-18T11:28:51;16.63;;;10.30;;
5175;SDS011;2607;50.934;6.934;2022-12-18T11:31:31;15.40;;;10.40;;
5175;SDS011;2607;50.934;6.934;2022-12-18T11:33:59;23.03;;;10.83;;
5175;SDS011;2607;50.934;6.934;2022-12-18T11:36:37;22.07;;;12.90;;
5175;SDS011;2607;50.934;6.934;2022-12-18T11:39:09;17.03;;;10.73;;
5175;SDS011;2607;50.934;6.934;2022-12-18T11:41:58;15.47;;;10.10;;
5175;SDS011;2607;50.934;6.934;2022-12-18T11:44:48;17.67;;;11.13;;
5175;SDS011;2607;50.934;6.934;2022-12-18T11:51:10;15.33;;;10.53;;
5175;SDS011;2607;50.934;6.934;2022-12-18T11:53:14;16.03;;;10.33;;
5175;SDS011;2607;50.934;6.934;2022-12-18T11:59:29;16.00;;;10.60;;
5175;SDS011;2607;50.934;6.934;2022-12-18T12:01:50;14.13;;;9.80;;
5175;SDS011;2607;50.934;6.934;2022-12-18T12:04:32;17.80;;;10.93;;
5175;SDS011;2607;50.934;6.934;2022-12-18T12:10:06;14.43;;;9.33;;
5175;SDS011;2607;50.934;6.934;2022-12-18T12:12:50;17.00;;;10.17;;
5175;SDS011;2607;50.934;6.934;2022-12-18T12:18:26;20.63;;;10.83;;
5175;SDS011;2607;50.934;6.934;2022-12-18T12:21:01;18.00;;;10.20;;
5175;SDS011;2607;50.934;6.934;2022-12-18T12:38:08;17.67;;;11.57;;
5175;SDS011;2607;50.934;6.934;2022-12-18T12:40:42;17.13;;;11.47;;
5175;SDS011;2607;50.934;6.934;2022-12-18T12:46:02;17.60;;;11.33;;
5175;SDS011;2607;50.934;6.934;2022-12-18T12:51:12;12.53;;;10.23;;
5175;SDS011;2607;50.934;6.934;2022-12-18T12:53:43;17.30;;;11.50;;
5175;SDS011;2607;50.934;6.934;2022-12-18T12:56:10;16.37;;;11.47;;
5175;SDS011;2607;50.934;6.934;2022-12-18T12:59:02;17.40;;;11.80;;
5175;SDS011;2607;50.934;6.934;2022-12-18T13:01:28;15.63;;;10.70;;
5175;SDS011;2607;50.934;6.934;2022-12-18T13:04:20;17.83;;;11.17;;
5175;SDS011;2607;50.934;6.934;2022-12-18T13:07:01;25.50;;;12.60;;
5175;SDS011;2607;50.934;6.934;2022-12-18T13:10:10;20.63;;;12.63;;
5175;SDS011;2607;50.934;6.934;2022-12-18T13:12:46;25.27;;;14.13;;
5175;SDS011;2607;50.934;6.934;2022-12-18T13:17:48;17.33;;;11.40;;
5175;SDS011;2607;50.934;6.934;2022-12-18T13:20:14;15.97;;;12.10;;
5175;SDS011;2607;50.934;6.934;2022-12-18T13:22:44;18.40;;;11.27;;
5175;SDS011;2607;50.934;6.934;2022-12-18T13:28:09;19.03;;;13.20;;
5175;SDS011;2607;50.934;6.934;2022-12-18T13:30:43;17.43;;;11.30;;
5175;SDS011;2607;50.934;6.934;2022-12-18T13:38:23;17.13;;;11.10;;
5175;SDS011;2607;50.934;6.934;2022-12-18T13:41:02;20.43;;;13.07;;
5175;SDS011;2607;50.934;6.934;2022-12-18T13:43:41;20.40;;;13.13;;
5175;SDS011;2607;50.934;6.934;2022-12-18T13:49:02;16.70;;;10.90;;
5175;SDS011;2607;50.934;6.934;2022-12-18T13:51:32;22.23;;;13.50;;
5175;SDS011;2607;50.934;6.934;2022-12-18T13:54:00;21.67;;;13.40;;
5175;SDS011;2607;50.934;6.934;2022-12-18T13:56:45;17.40;;;13.00;;
5175;SDS011;2607;50.934;6.934;2022-12-18T14:01:42;21.13;;;13.60;;
5175;SDS011;2607;50.934;6.934;2022-12-18T14:04:16;23.37;;;14.33;;
5175;SDS011;2607;50.934;6.934;2022-12-18T14:06:45;19.03;;;12.13;;
5175;SDS011;2607;50.934;6.934;2022-12-18T14:09:13;19.77;;;13.10;;
5175;SDS011;2607;50.934;6.934;2022-12-18T14:11:40;19.63;;;12.93;;
5175;SDS011;2607;50.934;6.934;2022-12-18T14:14:13;19.03;;;12.97;;
5175;SDS011;2607;50.934;6.934;2022-12-18T14:16:41;17.33;;;11.53;;
5175;SDS011;2607;50.934;6.934;2022-12-18T14:19:08;20.63;;;13.17;;
5175;SDS011;2607;50.934;6.934;2022-12-18T14:21:39;20.70;;;13.57;;
5175;SDS011;2607;50.934;6.934;2022-12-18T14:24:15;19.17;;;12.40;;
5175;SDS011;2607;50.934;6.934;2022-12-18T14:26:42;18.80;;;12.47;;
5175;SDS011;2607;50.934;6.934;2022-12-18T14:32:03;20.57;;;13.00;;
5175;SDS011;2607;50.934;6.934;2022-12-18T14:34:42;17.50;;;12.87;;
5175;SDS011;2607;50.934;6.934;2022-12-18T14:37:13;22.63;;;14.87;;
5175;SDS011;2607;50.934;6.934;2022-12-18T14:39:40;26.70;;;12.47;;
5175;SDS011;2607;50.934;6.934;2022-12-18T14:42:16;19.80;;;12.97;;
5175;SDS011;2607;50.934;6.934;2022-12-18T14:44:42;19.40;;;12.70;;
5175;SDS011;2607;50.934;6.934;2022-12-18T14:47:12;18.37;;;12.93;;
5175;SDS011;2607;50.934;6.934;2022-12-18T14:49:40;17.63;;;11.97;;
5175;SDS011;2607;50.934;6.934;2022-12-18T14:52:25;20.07;;;12.87;;
5175;SDS011;2607;50.934;6.934;2022-12-18T14:54:54;18.00;;;12.40;;
5175;SDS011;2607;50.934;6.934;2022-12-18T14:57:35;19.30;;;12.50;;
5175;SDS011;2607;50.934;6.934;2022-12-18T15:00:04;17.93;;;11.63;;
5175;SDS011;2607;50.934;6.934;2022-12-18T15:02:30;19.70;;;12.57;;
5175;SDS011;2607;50.934;6.934;2022-12-18T15:07:51;22.17;;;12.67;;
5175;SDS011;2607;50.934;6.934;2022-12-18T15:10:26;21.43;;;13.30;;
5175;SDS011;2607;50.934;6.934;2022-12-18T15:20:46;21.67;;;14.03;;
5175;SDS011;2607;50.934;6.934;2022-12-18T15:25:49;23.30;;;14.13;;
5175;SDS011;2607;50.934;6.934;2022-12-18T15:30:57;22.70;;;13.87;;
5175;SDS011;2607;50.934;6.934;2022-12-18T15:33:26;22.23;;;13.63;;
5175;SDS011;2607;50.934;6.934;2022-12-18T15:35:58;20.60;;;13.77;;
5175;SDS011;2607;50.934;6.934;2022-12-18T15:38:25;23.97;;;14.00;;
5175;SDS011;2607;50.934;6.934;2022-12-18T15:40:51;22.90;;;15.30;;
5175;SDS011;2607;50.934;6.934;2022-12-18T15:43:19;20.63;;;14.20;;
5175;SDS011;2607;50.934;6.934;2022-12-18T15:45:59;18.87;;;13.40;;
5175;SDS011;2607;50.934;6.934;2022-12-18T15:48:55;21.10;;;13.80;;
5175;SDS011;2607;50.934;6.934;2022-12-18T15:51:29;22.70;;;13.70;;
5175;SDS011;2607;50.934;6.934;2022-12-18T15:54:04;20.57;;;12.30;;
5175;SDS011;2607;50.934;6.934;2022-12-18T15:56:33;21.50;;;13.50;;
5175;SDS011;2607;50.934;6.934;2022-12-18T15:59:19;25.77;;;15.33;;
5175;SDS011;2607;50.934;6.934;2022-12-18T16:01:47;21.77;;;14.47;;
5175;SDS011;2607;50.934;6.934;2022-12-18T16:04:16;20.00;;;13.03;;
5175;SDS011;2607;50.934;6.934;2022-12-18T16:06:46;23.27;;;14.37;;
5175;SDS011;2607;50.934;6.934;2022-12-18T16:09:13;21.53;;;14.93;;
5175;SDS011;2607;50.934;6.934;2022-12-18T16:11:39;27.23;;;14.37;;
5175;SDS011;2607;50.934;6.934;2022-12-18T16:14:23;23.13;;;14.10;;
5175;SDS011;2607;50.934;6.934;2022-12-18T16:16:58;24.00;;;14.87;;
5175;SDS011;2607;50.934;6.934;2022-12-18T16:19:25;24.57;;;15.33;;
5175;SDS011;2607;50.934;6.934;2022-12-18T16:21:52;23.43;;;13.90;;
5175;SDS011;2607;50.934;6.934;2022-12-18T16:24:21;24.17;;;15.13;;
5175;SDS011;2607;50.934;6.934;2022-12-18T16:26:48;22.80;;;15.20;;
5175;SDS011;2607;50.934;6.934;2022-12-18T16:29:16;23.73;;;14.87;;
5175;SDS011;2607;50.934;6.934;2022-12-18T16:31:43;24.57;;;13.83;;
5175;SDS011;2607;50.934;6.934;2022-12-18T16:34:19;20.03;;;13.60;;
5175;SDS011;2607;50.934;6.934;2022-12-18T16:36:56;22.03;;;13.20;;
5175;SDS011;2607;50.934;6.934;2022-12-18T16:39:23;24.43;;;14.90;;
5175;SDS011;2607;50.934;6.934;2022-12-18T16:41:49;19.57;;;14.33;;
5175;SDS011;2607;50.934;6.934;2022-12-18T16:44:15;19.97;;;13.70;;
5175;SDS011;2607;50.934;6.934;2022-12-18T16:46:41;22.80;;;13.73;;
5175;SDS011;2607;50.934;6.934;2022-12-18T16:49:13;23.67;;;14.40;;
5175;SDS011;2607;50.934;6.934;2022-12-18T16:51:39;23.20;;;14.90;;
5175;SDS011;2607;50.934;6.934;2022-12-18T16:54:05;28.33;;;15.77;;
5175;SDS011;2607;50.934;6.934;2022-12-18T16:56:31;23.20;;;14.17;;
5175;SDS011;2607;50.934;6.934;2022-12-18T16:58:58;25.40;;;15.17;;
5175;SDS011;2607;50.934;6.934;2022-12-18T17:01:25;20.67;;;14.03;;
5175;SDS011;2607;50.934;6.934;2022-12-18T17:03:58;22.53;;;14.63;;
5175;SDS011;2607;50.934;6.934;2022-12-18T17:06:26;21.50;;;14.00;;
5175;SDS011;2607;50.934;6.934;2022-12-18T17:08:56;24.90;;;15.50;;
5175;SDS011;2607;50.934;6.934;2022-12-18T17:11:28;29.53;;;17.50;;